createdAt,value
2019-03-30T00:01:54.184Z,23.47
2019-03-30T00:04:25.688Z,22.57
2019-03-30T00:06:57.630Z,22.80
2019-03-30T00:09:29.347Z,23.40
2019-03-30T00:12:00.751Z,21.67
2019-03-30T00:14:32.210Z,22.77
2019-03-30T00:17:03.884Z,21.48
2019-03-30T00:19:35.564Z,21.67
2019-03-30T00:22:07.580Z,21.10
2019-03-30T00:24:39.012Z,21.00
2019-03-30T00:27:10.648Z,21.20
2019-03-30T00:29:42.118Z,20.83
2019-03-30T00:32:13.485Z,21.40
2019-03-30T00:34:44.869Z,21.10
2019-03-30T00:37:16.875Z,21.73
2019-03-30T00:39:48.870Z,20.40
2019-03-30T00:42:20.659Z,21.40
2019-03-30T00:44:52.054Z,18.97
2019-03-30T00:47:23.688Z,19.17
2019-03-30T00:49:55.195Z,18.67
2019-03-30T00:52:27.147Z,19.20
2019-03-30T00:54:58.770Z,19.23
2019-03-30T00:57:30.617Z,18.17
2019-03-30T01:00:02.350Z,20.20
2019-03-30T01:02:33.741Z,16.97
2019-03-30T01:05:05.498Z,18.70
2019-03-30T01:07:36.950Z,17.87
2019-03-30T01:10:08.443Z,19.30
2019-03-30T01:12:40.043Z,18.37
2019-03-30T01:15:11.621Z,17.73
2019-03-30T01:17:43.342Z,19.70
2019-03-30T01:20:14.998Z,18.40
2019-03-30T01:22:46.962Z,16.47
2019-03-30T01:25:18.386Z,17.77
2019-03-30T01:27:51.069Z,17.87
2019-03-30T01:30:23.694Z,17.77
2019-03-30T01:32:55.158Z,17.63
2019-03-30T01:35:26.912Z,16.87
2019-03-30T01:37:59.062Z,16.27
2019-03-30T01:40:30.722Z,16.93
2019-03-30T01:43:02.171Z,17.50
2019-03-30T01:45:33.580Z,15.50
2019-03-30T01:48:05.847Z,17.90
2019-03-30T01:50:37.468Z,16.57
2019-03-30T01:53:08.870Z,18.27
2019-03-30T01:55:40.260Z,16.33
2019-03-30T01:58:12.265Z,16.02
2019-03-30T02:00:43.704Z,15.97
2019-03-30T02:03:15.686Z,16.63
2019-03-30T02:05:47.281Z,16.20
2019-03-30T02:08:19.675Z,16.90
2019-03-30T02:10:51.078Z,16.07
2019-03-30T02:13:22.506Z,16.77
2019-03-30T02:15:54.291Z,17.33
2019-03-30T02:18:25.697Z,16.17
2019-03-30T02:20:57.088Z,16.30
2019-03-30T02:23:28.718Z,17.20
2019-03-30T02:26:00.216Z,15.87
2019-03-30T02:28:32.191Z,16.15
2019-03-30T02:31:03.612Z,16.75
2019-03-30T02:33:35.371Z,14.43
2019-03-30T02:36:06.747Z,15.27
2019-03-30T02:38:38.439Z,15.73
2019-03-30T02:41:09.822Z,14.75
2019-03-30T02:43:41.601Z,14.50
2019-03-30T02:46:12.974Z,14.37
2019-03-30T02:48:44.853Z,14.57
2019-03-30T02:51:16.232Z,13.73
2019-03-30T02:53:48.408Z,13.03
2019-03-30T02:56:20.103Z,13.90
2019-03-30T02:58:51.714Z,14.20
2019-03-30T03:01:23.478Z,11.57
2019-03-30T03:03:55.331Z,13.00
2019-03-30T03:06:26.965Z,11.70
2019-03-30T03:08:58.366Z,10.60
2019-03-30T03:11:30.104Z,12.00
2019-03-30T03:14:01.862Z,10.80
2019-03-30T03:16:33.530Z,11.63
2019-03-30T03:19:05.155Z,12.30
2019-03-30T03:21:36.567Z,11.03
2019-03-30T03:24:08.269Z,11.33
2019-03-30T03:26:39.668Z,11.05
2019-03-30T03:29:11.384Z,11.27
2019-03-30T03:31:43.090Z,11.93
2019-03-30T03:34:14.871Z,11.63
2019-03-30T03:36:46.247Z,12.00
2019-03-30T03:39:19.016Z,10.53
2019-03-30T03:41:50.730Z,11.23
2019-03-30T03:44:22.321Z,11.53
2019-03-30T03:46:53.714Z,11.47
2019-03-30T03:49:25.426Z,11.30
2019-03-30T03:51:58.315Z,11.12
2019-03-30T03:54:30.322Z,11.57
2019-03-30T03:57:03.820Z,12.53
2019-03-30T03:59:37.189Z,12.35
2019-03-30T04:02:11.145Z,12.07
2019-03-30T04:04:47.339Z,12.47
2019-03-30T04:07:19.039Z,17.07
2019-03-30T04:09:51.440Z,14.73
2019-03-30T04:12:24.400Z,12.93
2019-03-30T04:14:55.855Z,12.67
2019-03-30T04:17:27.608Z,14.50
2019-03-30T04:19:58.986Z,14.40
2019-03-30T04:22:30.379Z,14.10
2019-03-30T04:25:01.964Z,14.03
2019-03-30T04:27:34.193Z,13.70
2019-03-30T04:30:05.807Z,14.53
2019-03-30T04:32:38.187Z,14.77
2019-03-30T04:35:09.543Z,14.87
2019-03-30T04:37:40.941Z,14.85
2019-03-30T04:40:12.664Z,15.40
2019-03-30T04:42:44.030Z,17.30
2019-03-30T04:45:15.562Z,16.95
2019-03-30T04:47:46.914Z,16.67
2019-03-30T04:50:18.545Z,16.23
2019-03-30T04:52:50.506Z,19.50
2019-03-30T04:55:22.364Z,18.50
2019-03-30T04:57:57.844Z,17.77
2019-03-30T05:00:27.089Z,18.03
2019-03-30T05:02:59.510Z,17.07
2019-03-30T05:05:30.922Z,17.53
2019-03-30T05:08:02.309Z,18.37
2019-03-30T05:10:34.048Z,17.97
2019-03-30T05:13:05.456Z,18.30
2019-03-30T05:15:36.894Z,19.53
2019-03-30T05:18:08.611Z,18.90
2019-03-30T05:20:40.053Z,18.90
2019-03-30T05:23:11.721Z,17.93
2019-03-30T05:25:43.088Z,18.00
2019-03-30T05:28:15.534Z,20.17
2019-03-30T05:30:47.793Z,19.13
2019-03-30T05:33:19.164Z,18.00
2019-03-30T05:35:50.946Z,18.10
2019-03-30T05:38:22.657Z,19.13
2019-03-30T05:40:54.035Z,18.73
2019-03-30T05:43:25.439Z,19.23
2019-03-30T05:45:57.039Z,19.47
2019-03-30T05:48:28.869Z,18.60
2019-03-30T05:51:00.671Z,17.80
2019-03-30T05:53:32.328Z,19.23
2019-03-30T05:56:03.720Z,20.60
2019-03-30T05:58:35.094Z,19.43
2019-03-30T06:01:06.694Z,17.57
2019-03-30T06:03:38.405Z,19.20
2019-03-30T06:06:09.851Z,17.20
2019-03-30T06:08:41.272Z,16.53
2019-03-30T06:11:13.199Z,16.53
2019-03-30T06:13:44.823Z,17.03
2019-03-30T06:16:16.214Z,15.20
2019-03-30T06:18:48.130Z,14.33
2019-03-30T06:21:19.571Z,14.43
2019-03-30T06:23:51.062Z,14.10
2019-03-30T06:26:23.659Z,12.33
2019-03-30T06:28:55.045Z,12.77
2019-03-30T06:31:26.552Z,11.57
2019-03-30T06:33:57.946Z,12.80
2019-03-30T06:36:29.624Z,12.30
2019-03-30T06:39:01.572Z,11.67
2019-03-30T06:41:34.164Z,10.93
2019-03-30T06:44:05.577Z,11.48
2019-03-30T06:46:39.462Z,11.08
2019-03-30T06:49:11.102Z,10.95
2019-03-30T06:51:42.499Z,9.48
2019-03-30T06:54:14.948Z,10.55
2019-03-30T06:56:46.370Z,9.63
2019-03-30T06:59:18.227Z,8.37
2019-03-30T07:01:50.057Z,8.90
2019-03-30T07:04:21.597Z,9.87
2019-03-30T07:06:53.330Z,9.77
2019-03-30T07:09:26.599Z,9.77
2019-03-30T07:11:59.909Z,9.03
2019-03-30T07:14:33.665Z,8.93
2019-03-30T07:17:05.216Z,10.03
2019-03-30T07:19:38.323Z,10.00
2019-03-30T07:22:09.755Z,9.50
2019-03-30T07:24:41.120Z,9.10
2019-03-30T07:27:12.828Z,9.73
2019-03-30T07:29:44.535Z,8.73
2019-03-30T07:32:16.229Z,9.30
2019-03-30T07:34:47.858Z,8.90
2019-03-30T07:37:19.275Z,10.30
2019-03-30T07:39:50.988Z,10.30
2019-03-30T07:42:22.686Z,9.67
2019-03-30T07:44:54.688Z,9.60
2019-03-30T07:47:26.056Z,9.40
2019-03-30T07:49:57.868Z,9.43
2019-03-30T07:52:31.865Z,9.77
2019-03-30T07:55:03.313Z,9.47
2019-03-30T07:57:34.785Z,9.83
2019-03-30T08:00:12.674Z,10.23
2019-03-30T08:02:44.150Z,9.38
2019-03-30T08:05:15.802Z,10.13
2019-03-30T08:07:48.369Z,9.20
2019-03-30T08:10:20.134Z,10.35
2019-03-30T08:12:51.941Z,9.80
2019-03-30T08:15:23.425Z,10.27
2019-03-30T08:17:55.270Z,10.33
2019-03-30T08:20:27.982Z,10.10
2019-03-30T08:22:59.392Z,10.83
2019-03-30T08:25:30.890Z,9.80
2019-03-30T08:28:04.375Z,10.70
2019-03-30T08:30:36.071Z,10.20
2019-03-30T08:33:08.814Z,10.07
2019-03-30T08:35:40.578Z,10.93
2019-03-30T08:38:12.309Z,11.07
2019-03-30T08:40:44.292Z,10.27
2019-03-30T08:43:16.054Z,9.77
2019-03-30T08:45:48.989Z,9.78
2019-03-30T08:48:21.111Z,10.17
2019-03-30T08:50:52.820Z,9.37
2019-03-30T08:53:24.352Z,8.83
2019-03-30T08:55:56.057Z,9.20
2019-03-30T08:58:27.728Z,10.30
2019-03-30T09:01:00.078Z,9.10
2019-03-30T09:03:33.940Z,10.77
2019-03-30T09:06:04.642Z,10.00
2019-03-30T09:08:36.330Z,9.77
2019-03-30T09:11:08.235Z,9.70
2019-03-30T09:13:40.192Z,10.37
2019-03-30T09:16:11.789Z,8.87
2019-03-30T09:18:43.179Z,9.80
2019-03-30T09:21:14.833Z,10.17
2019-03-30T09:23:47.796Z,9.47
2019-03-30T09:26:19.409Z,9.97
2019-03-30T09:28:51.306Z,9.70
2019-03-30T09:31:24.256Z,10.93
2019-03-30T09:33:55.914Z,11.00
2019-03-30T09:36:27.449Z,11.13
2019-03-30T09:38:58.828Z,11.10
2019-03-30T09:41:30.238Z,11.23
2019-03-30T09:44:01.887Z,10.90
2019-03-30T09:46:34.674Z,11.63
2019-03-30T09:49:06.284Z,11.23
2019-03-30T09:51:37.801Z,11.33
2019-03-30T09:54:22.858Z,11.47
2019-03-30T09:56:42.563Z,11.87
2019-03-30T09:59:13.984Z,12.57
2019-03-30T10:01:45.737Z,12.47
2019-03-30T10:04:17.397Z,13.67
2019-03-30T10:06:49.701Z,13.32
2019-03-30T10:09:21.377Z,12.33
2019-03-30T10:11:53.072Z,12.93
2019-03-30T10:14:24.540Z,13.30
2019-03-30T10:16:55.972Z,13.30
2019-03-30T10:19:27.746Z,13.57
2019-03-30T10:21:59.672Z,13.03
2019-03-30T10:24:37.858Z,14.37
2019-03-30T10:27:05.335Z,13.60
2019-03-30T10:29:37.940Z,13.00
2019-03-30T10:32:09.361Z,13.97
2019-03-30T10:34:40.772Z,13.87
2019-03-30T10:37:12.226Z,13.70
2019-03-30T10:39:45.944Z,12.78
2019-03-30T10:42:17.403Z,13.73
2019-03-30T10:44:49.117Z,14.30
2019-03-30T10:47:20.629Z,14.30
2019-03-30T10:49:52.132Z,13.93
2019-03-30T10:52:23.965Z,14.60
2019-03-30T10:54:55.642Z,13.60
2019-03-30T10:57:27.306Z,13.17
2019-03-30T10:59:58.754Z,13.23
2019-03-30T11:02:30.194Z,13.27
2019-03-30T11:05:03.204Z,13.97
2019-03-30T11:07:34.991Z,13.57
2019-03-30T11:10:07.669Z,14.33
2019-03-30T11:12:39.081Z,13.13
2019-03-30T11:15:10.488Z,14.45
2019-03-30T11:17:42.510Z,14.07
2019-03-30T11:20:13.943Z,14.17
2019-03-30T11:22:45.371Z,13.53
2019-03-30T11:25:17.121Z,14.27
2019-03-30T11:27:48.575Z,13.50
2019-03-30T11:30:20.079Z,14.20
2019-03-30T11:32:52.137Z,14.43
2019-03-30T11:35:23.608Z,13.03
2019-03-30T11:37:55.348Z,11.63
2019-03-30T11:40:26.818Z,11.67
2019-03-30T11:42:59.296Z,10.90
2019-03-30T11:45:30.931Z,11.57
2019-03-30T11:48:03.317Z,12.30
2019-03-30T11:50:35.700Z,12.43
2019-03-30T11:53:07.744Z,12.80
2019-03-30T11:55:39.412Z,13.53
2019-03-30T11:58:11.133Z,13.30
2019-03-30T12:00:44.903Z,12.97
2019-03-30T12:03:16.937Z,13.77
2019-03-30T12:05:48.399Z,12.90
2019-03-30T12:08:19.917Z,13.67
2019-03-30T12:10:51.576Z,12.80
2019-03-30T12:13:23.355Z,12.47
2019-03-30T12:15:55.017Z,12.07
2019-03-30T12:18:26.781Z,12.23
2019-03-30T12:20:58.254Z,12.77
2019-03-30T12:23:29.965Z,12.70
2019-03-30T12:26:01.559Z,14.07
2019-03-30T12:28:32.986Z,13.60
2019-03-30T12:31:04.553Z,12.83
2019-03-30T12:33:36.228Z,12.27
2019-03-30T12:36:08.147Z,11.70
2019-03-30T12:38:39.845Z,13.77
2019-03-30T12:41:11.268Z,12.53
2019-03-30T12:43:42.593Z,13.13
2019-03-30T12:46:14.296Z,12.63
2019-03-30T12:48:47.896Z,11.40
2019-03-30T12:51:19.299Z,11.83
2019-03-30T12:53:50.905Z,13.00
2019-03-30T12:56:22.340Z,11.53
2019-03-30T12:58:54.664Z,12.93
2019-03-30T13:01:27.158Z,12.80
2019-03-30T13:03:58.809Z,11.30
2019-03-30T13:06:30.191Z,8.63
2019-03-30T13:09:01.874Z,9.17
2019-03-30T13:11:34.313Z,8.77
2019-03-30T13:14:06.736Z,6.97
2019-03-30T13:16:38.375Z,8.40
2019-03-30T13:19:09.889Z,7.87
2019-03-30T13:21:52.308Z,8.43
2019-03-30T13:24:15.595Z,8.10
2019-03-30T13:26:47.131Z,8.38
2019-03-30T13:29:19.556Z,6.83
2019-03-30T13:31:50.955Z,8.28
2019-03-30T13:34:22.385Z,8.00
2019-03-30T13:36:53.752Z,6.65
2019-03-30T13:39:25.177Z,8.03
2019-03-30T13:41:56.874Z,8.77
2019-03-30T13:44:28.794Z,7.77
2019-03-30T13:47:00.474Z,8.20
2019-03-30T13:49:32.113Z,7.93
2019-03-30T13:52:03.858Z,8.67
2019-03-30T13:54:38.499Z,8.43
2019-03-30T13:57:08.984Z,7.97
2019-03-30T13:59:40.472Z,8.50
2019-03-30T14:02:11.904Z,9.03
2019-03-30T14:04:43.287Z,8.53
2019-03-30T14:07:14.719Z,8.98
2019-03-30T14:09:46.134Z,8.97
2019-03-30T14:12:18.661Z,9.08
2019-03-30T14:14:51.412Z,7.90
2019-03-30T14:17:23.512Z,8.10
2019-03-30T14:19:54.891Z,7.40
2019-03-30T14:22:26.281Z,6.97
2019-03-30T14:24:58.441Z,6.67
2019-03-30T14:27:29.847Z,8.13
2019-03-30T14:30:01.328Z,6.87
2019-03-30T14:32:32.801Z,6.80
2019-03-30T14:35:04.525Z,7.73
2019-03-30T14:37:35.921Z,6.90
2019-03-30T14:40:07.926Z,7.57
2019-03-30T14:42:39.651Z,8.20
2019-03-30T14:45:11.420Z,7.60
2019-03-30T14:47:43.038Z,7.60
2019-03-30T14:50:15.138Z,7.70
2019-03-30T14:52:46.885Z,7.23
2019-03-30T14:55:18.318Z,8.27
2019-03-30T14:57:50.113Z,7.93
2019-03-30T15:00:21.686Z,6.78
2019-03-30T15:02:53.454Z,6.80
2019-03-30T15:05:25.137Z,7.10
2019-03-30T15:07:56.601Z,7.50
2019-03-30T15:10:28.042Z,7.23
2019-03-30T15:12:59.975Z,6.97
2019-03-30T15:15:31.495Z,6.90
2019-03-30T15:18:02.963Z,6.83
2019-03-30T15:20:34.480Z,7.20
2019-03-30T15:23:06.142Z,7.50
2019-03-30T15:25:37.587Z,7.47
2019-03-30T15:28:09.036Z,7.07
2019-03-30T15:30:45.029Z,7.27
2019-03-30T15:33:17.045Z,5.77
2019-03-30T15:35:48.487Z,7.28
2019-03-30T15:38:22.714Z,7.35
2019-03-30T15:40:55.769Z,7.07
2019-03-30T15:43:38.282Z,7.03
2019-03-30T15:46:00.700Z,6.37
2019-03-30T15:48:32.411Z,7.00
2019-03-30T15:51:04.866Z,7.57
2019-03-30T15:53:36.289Z,7.07
2019-03-30T15:56:07.846Z,7.23
2019-03-30T15:58:43.351Z,7.63
2019-03-30T16:01:15.707Z,6.93
2019-03-30T16:03:47.062Z,7.57
2019-03-30T16:06:18.570Z,7.60
2019-03-30T16:08:50.093Z,7.20
2019-03-30T16:11:21.579Z,8.27
2019-03-30T16:13:53.207Z,7.87
2019-03-30T16:16:25.057Z,7.72
2019-03-30T16:18:56.494Z,8.27
2019-03-30T16:21:27.896Z,7.90
2019-03-30T16:23:59.340Z,8.73
2019-03-30T16:26:41.790Z,9.03
2019-03-30T16:29:04.574Z,9.23
2019-03-30T16:31:36.001Z,10.83
2019-03-30T16:34:07.387Z,10.00
2019-03-30T16:36:38.991Z,10.70
2019-03-30T16:39:11.146Z,10.40
2019-03-30T16:41:42.627Z,11.00
2019-03-30T16:44:15.222Z,9.90
2019-03-30T16:46:46.945Z,10.17
2019-03-30T16:49:19.529Z,10.00
2019-03-30T16:51:51.360Z,10.70
2019-03-30T16:54:28.805Z,11.37
2019-03-30T16:57:01.481Z,9.57
2019-03-30T16:59:33.090Z,12.03
2019-03-30T17:02:04.796Z,10.33
2019-03-30T17:04:36.504Z,10.17
2019-03-30T17:07:07.899Z,9.73
2019-03-30T17:09:39.285Z,9.63
2019-03-30T17:12:11.140Z,9.83
2019-03-30T17:14:42.522Z,9.53
2019-03-30T17:17:14.006Z,9.57
2019-03-30T17:19:45.768Z,8.63
2019-03-30T17:22:17.366Z,8.80
2019-03-30T17:24:49.089Z,9.43
2019-03-30T17:27:20.836Z,8.67
2019-03-30T17:29:52.524Z,7.80
2019-03-30T17:32:23.886Z,8.67
2019-03-30T17:34:55.661Z,8.30
2019-03-30T17:37:27.402Z,8.83
2019-03-30T17:39:58.860Z,9.08
2019-03-30T17:42:31.581Z,8.67
2019-03-30T17:45:03.173Z,8.33
2019-03-30T17:47:35.283Z,8.33
2019-03-30T17:50:09.155Z,9.93
2019-03-30T17:52:45.583Z,10.10
2019-03-30T17:55:17.049Z,10.93
2019-03-30T17:57:48.484Z,11.43
2019-03-30T18:00:20.749Z,11.03
2019-03-30T18:02:52.890Z,12.20
2019-03-30T18:05:24.539Z,12.17
2019-03-30T18:07:55.959Z,13.20
2019-03-30T18:10:27.453Z,11.77
2019-03-30T18:12:58.982Z,13.43
2019-03-30T18:15:34.931Z,13.20
2019-03-30T18:18:06.972Z,12.30
2019-03-30T18:20:38.985Z,11.87
2019-03-30T18:23:10.391Z,11.60
2019-03-30T18:25:41.801Z,12.67
2019-03-30T18:28:26.423Z,12.40
2019-03-30T18:30:46.573Z,12.23
2019-03-30T18:33:18.076Z,13.10
2019-03-30T18:35:49.987Z,11.60
2019-03-30T18:38:21.859Z,13.70
2019-03-30T18:40:53.267Z,14.23
2019-03-30T18:43:24.734Z,16.00
2019-03-30T18:45:56.801Z,17.97
2019-03-30T18:48:28.249Z,18.43
2019-03-30T18:51:00.081Z,15.37
2019-03-30T18:53:31.685Z,13.50
2019-03-30T18:56:03.081Z,13.62
2019-03-30T18:58:41.659Z,14.43
2019-03-30T19:01:08.904Z,13.53
2019-03-30T19:03:40.378Z,14.90
2019-03-30T19:06:12.443Z,13.67
2019-03-30T19:08:43.907Z,15.77
2019-03-30T19:11:15.299Z,14.43
2019-03-30T19:13:46.744Z,15.40
2019-03-30T19:16:18.478Z,14.70
2019-03-30T19:18:50.896Z,15.30
2019-03-30T19:21:22.385Z,14.53
2019-03-30T19:23:53.800Z,15.10
2019-03-30T19:26:25.513Z,13.93
2019-03-30T19:28:57.098Z,14.63
2019-03-30T19:31:28.828Z,14.03
2019-03-30T19:34:00.724Z,13.90
2019-03-30T19:36:32.277Z,13.72
2019-03-30T19:39:04.737Z,14.67
2019-03-30T19:41:36.205Z,14.37
2019-03-30T19:44:07.697Z,14.10
2019-03-30T19:46:39.113Z,14.93
2019-03-30T19:49:10.744Z,13.93
2019-03-30T19:51:42.150Z,14.33
2019-03-30T19:54:14.022Z,15.17
2019-03-30T19:56:46.935Z,13.37
2019-03-30T19:59:18.304Z,14.73
2019-03-30T20:01:50.428Z,14.73
2019-03-30T20:04:22.122Z,14.87
2019-03-30T20:06:53.697Z,14.43
2019-03-30T20:09:25.130Z,12.80
2019-03-30T20:11:56.520Z,13.37
2019-03-30T20:14:28.123Z,14.17
2019-03-30T20:16:59.686Z,13.60
2019-03-30T20:19:31.294Z,14.33
2019-03-30T20:22:02.908Z,14.67
2019-03-30T20:24:34.623Z,15.73
2019-03-30T20:27:06.124Z,15.37
2019-03-30T20:29:37.981Z,14.47
2019-03-30T20:32:09.842Z,15.60
2019-03-30T20:34:41.576Z,15.37
2019-03-30T20:37:15.707Z,14.30
2019-03-30T20:39:47.260Z,15.30
2019-03-30T20:42:18.787Z,14.93
2019-03-30T20:44:50.468Z,14.33
2019-03-30T20:47:22.028Z,15.07
2019-03-30T20:49:53.471Z,15.43
2019-03-30T20:52:25.386Z,16.30
2019-03-30T20:54:56.825Z,15.30
2019-03-30T20:57:28.636Z,17.53
2019-03-30T21:00:00.353Z,18.53
2019-03-30T21:02:32.290Z,19.27
2019-03-30T21:05:04.379Z,18.60
2019-03-30T21:07:36.015Z,21.63
2019-03-30T21:10:08.517Z,16.87
2019-03-30T21:12:39.941Z,14.90
2019-03-30T21:15:12.454Z,15.87
2019-03-30T21:17:43.899Z,15.30
2019-03-30T21:20:15.837Z,15.50
2019-03-30T21:22:47.231Z,14.83
2019-03-30T21:25:18.710Z,14.53
2019-03-30T21:27:50.344Z,14.23
2019-03-30T21:30:22.075Z,15.80
2019-03-30T21:32:54.344Z,13.60
2019-03-30T21:35:26.916Z,14.93
2019-03-30T21:37:58.861Z,15.40
2019-03-30T21:40:31.312Z,14.38
2019-03-30T21:43:03.135Z,14.37
2019-03-30T21:45:35.041Z,14.68
2019-03-30T21:48:07.618Z,15.30
2019-03-30T21:50:39.032Z,14.67
2019-03-30T21:53:10.748Z,14.97
2019-03-30T21:55:42.722Z,14.13
2019-03-30T21:58:14.173Z,15.07
2019-03-30T22:00:45.529Z,15.23
2019-03-30T22:03:17.497Z,15.60
2019-03-30T22:05:49.250Z,14.57
2019-03-30T22:08:20.980Z,15.47
2019-03-30T22:10:52.639Z,15.43
2019-03-30T22:13:25.183Z,15.13
2019-03-30T22:15:56.953Z,16.50
2019-03-30T22:18:28.712Z,16.75
2019-03-30T22:21:00.102Z,16.33
2019-03-30T22:23:31.795Z,16.23
2019-03-30T22:26:03.517Z,16.52
2019-03-30T22:28:35.125Z,17.23
2019-03-30T22:31:06.525Z,17.03
2019-03-30T22:33:37.953Z,16.97
2019-03-30T22:36:09.522Z,17.83
2019-03-30T22:38:41.187Z,16.03
2019-03-30T22:41:12.629Z,18.13
2019-03-30T22:43:44.038Z,18.60
2019-03-30T22:46:15.548Z,18.93
2019-03-30T22:48:47.484Z,18.07
2019-03-30T22:51:19.044Z,17.87
2019-03-30T22:53:50.933Z,18.63
2019-03-30T22:56:22.361Z,19.57
2019-03-30T22:58:54.001Z,18.87
2019-03-30T23:01:25.963Z,19.77
2019-03-30T23:03:57.453Z,19.67
2019-03-30T23:06:29.171Z,20.12
2019-03-30T23:09:00.690Z,19.83
2019-03-30T23:11:32.936Z,22.40
2019-03-30T23:14:04.277Z,20.87
2019-03-30T23:16:35.830Z,22.07
2019-03-30T23:19:07.367Z,22.30
2019-03-30T23:21:38.822Z,22.57
2019-03-30T23:24:10.278Z,22.30
2019-03-30T23:26:41.783Z,24.83
2019-03-30T23:29:13.475Z,23.47
2019-03-30T23:31:44.908Z,24.93
2019-03-30T23:34:18.202Z,23.30
2019-03-30T23:36:49.900Z,24.33
2019-03-30T23:39:21.968Z,26.20
2019-03-30T23:41:53.342Z,24.90
2019-03-30T23:44:24.861Z,24.80
2019-03-30T23:46:56.714Z,24.87
2019-03-30T23:49:28.451Z,24.60
2019-03-30T23:51:59.865Z,24.60
2019-03-30T23:54:31.729Z,26.37
2019-03-30T23:57:03.731Z,26.93
2019-03-30T23:59:35.402Z,26.30
